createdAt,value
2022-10-13T00:08:41.813Z,4.10
2022-10-13T00:22:42.017Z,5.10
2022-10-13T00:36:41.926Z,5.40
2022-10-13T00:50:41.911Z,4.00
2022-10-13T01:04:41.933Z,3.80
2022-10-13T01:18:41.919Z,3.60
2022-10-13T01:32:41.936Z,3.70
2022-10-13T01:46:41.945Z,3.40
2022-10-13T02:00:42.030Z,3.40
2022-10-13T02:14:42.009Z,3.50
2022-10-13T02:28:42.056Z,3.30
2022-10-13T02:42:42.012Z,3.20
2022-10-13T02:56:42.028Z,3.10
2022-10-13T03:10:42.026Z,3.80
2022-10-13T03:24:42.057Z,4.10
2022-10-13T03:38:42.107Z,3.40
2022-10-13T03:52:42.102Z,4.20
2022-10-13T04:06:42.211Z,3.20
2022-10-13T04:20:42.262Z,3.20
2022-10-13T04:34:42.297Z,3.40
2022-10-13T04:48:42.259Z,2.80
2022-10-13T05:02:42.279Z,3.00
2022-10-13T05:16:42.267Z,3.50
2022-10-13T05:31:42.272Z,5.60
2022-10-13T05:46:42.301Z,5.30
2022-10-13T06:01:42.372Z,5.60
2022-10-13T06:16:42.300Z,5.30
2022-10-13T06:31:42.313Z,21.00
2022-10-13T06:46:42.317Z,20.90
2022-10-13T07:01:42.333Z,29.80
2022-10-13T07:16:42.338Z,23.30
2022-10-13T07:31:42.331Z,26.10
2022-10-13T07:46:42.335Z,23.70
2022-10-13T08:01:42.382Z,24.50
2022-10-13T08:16:42.350Z,17.35
2022-10-13T08:31:42.598Z,18.45
2022-10-13T08:46:42.408Z,16.90
2022-10-13T09:01:42.454Z,16.10
2022-10-13T09:16:42.437Z,15.20
2022-10-13T09:31:42.449Z,12.40
2022-10-13T09:46:42.431Z,11.20
2022-10-13T10:01:42.538Z,11.20
2022-10-13T10:16:42.467Z,9.70
2022-10-13T10:31:42.468Z,10.80
2022-10-13T10:43:24.237Z,8.20
2022-10-13T10:57:24.152Z,10.20
2022-10-13T11:12:24.080Z,9.30
2022-10-13T11:27:24.111Z,8.80
2022-10-13T11:42:24.128Z,7.70
2022-10-13T11:57:24.172Z,6.95
2022-10-13T12:12:24.178Z,5.70
2022-10-13T12:28:24.215Z,6.90
2022-10-13T12:43:24.208Z,6.40
2022-10-13T12:58:24.214Z,5.30
2022-10-13T13:13:24.435Z,5.10
2022-10-13T13:28:25.017Z,5.90
2022-10-13T13:43:25.000Z,4.90
2022-10-13T13:59:25.055Z,4.85
2022-10-13T14:14:25.132Z,5.40
2022-10-13T14:29:25.198Z,5.50
2022-10-13T14:44:25.146Z,4.10
2022-10-13T15:00:25.167Z,5.90
2022-10-13T15:15:25.204Z,4.90
2022-10-13T15:30:25.504Z,4.20
2022-10-13T15:45:25.565Z,4.80
2022-10-13T16:00:25.642Z,3.90
2022-10-13T16:16:25.707Z,5.40
2022-10-13T16:31:25.736Z,4.10
2022-10-13T16:46:25.727Z,5.00
2022-10-13T17:01:25.745Z,6.45
2022-10-13T17:15:25.748Z,7.75
2022-10-13T17:29:25.761Z,6.65
2022-10-13T17:43:25.974Z,6.40
2022-10-13T17:57:25.824Z,5.30
2022-10-13T18:11:25.987Z,6.20
2022-10-13T18:25:26.562Z,17.40
2022-10-13T18:39:26.189Z,12.10
2022-10-13T18:53:26.202Z,16.10
2022-10-13T19:07:26.249Z,13.80
2022-10-13T19:21:26.294Z,14.00
2022-10-13T19:35:26.573Z,13.50
2022-10-13T19:49:26.627Z,14.00
2022-10-13T20:03:26.582Z,11.70
2022-10-13T20:17:26.635Z,13.00
2022-10-13T20:31:26.597Z,11.30
2022-10-13T20:45:26.606Z,9.70
2022-10-13T20:59:26.619Z,9.40
2022-10-13T21:13:26.615Z,8.40
2022-10-13T21:27:26.652Z,8.10
2022-10-13T21:41:26.626Z,7.80
2022-10-13T21:55:26.640Z,6.90
2022-10-13T22:09:26.660Z,7.00
2022-10-13T22:23:26.784Z,6.50
2022-10-13T22:37:26.754Z,6.10
2022-10-13T22:51:26.759Z,5.30
2022-10-13T23:05:26.768Z,5.20
2022-10-13T23:19:26.773Z,4.70
2022-10-13T23:33:26.778Z,4.80
2022-10-13T23:47:26.851Z,4.90
